sensor_id;sensor_type;location;lat;lon;timestamp;temperature;humidity
52209;DHT22;38507;53.132;6.394;2023-06-14T00:01:46;16.80;83.00
52209;DHT22;38507;53.132;6.394;2023-06-14T00:04:13;16.60;83.40
52209;DHT22;38507;53.132;6.394;2023-06-14T00:06:39;16.60;83.60
52209;DHT22;38507;53.132;6.394;2023-06-14T00:09:06;16.60;83.70
52209;DHT22;38507;53.132;6.394;2023-06-14T00:11:34;16.60;84.90
52209;DHT22;38507;53.132;6.394;2023-06-14T00:13:59;16.50;83.90
52209;DHT22;38507;53.132;6.394;2023-06-14T00:16:25;16.50;84.00
52209;DHT22;38507;53.132;6.394;2023-06-14T00:18:50;16.50;84.90
52209;DHT22;38507;53.132;6.394;2023-06-14T00:21:17;16.40;85.20
52209;DHT22;38507;53.132;6.394;2023-06-14T00:23:43;16.40;85.00
52209;DHT22;38507;53.132;6.394;2023-06-14T00:26:09;16.30;85.10
52209;DHT22;38507;53.132;6.394;2023-06-14T00:28:34;16.30;85.30
52209;DHT22;38507;53.132;6.394;2023-06-14T00:31:00;16.30;85.00
52209;DHT22;38507;53.132;6.394;2023-06-14T00:33:26;16.30;86.10
52209;DHT22;38507;53.132;6.394;2023-06-14T00:35:51;16.20;87.10
52209;DHT22;38507;53.132;6.394;2023-06-14T00:38:19;16.20;85.70
52209;DHT22;38507;53.132;6.394;2023-06-14T00:40:45;16.20;86.30
52209;DHT22;38507;53.132;6.394;2023-06-14T00:43:11;16.20;86.20
52209;DHT22;38507;53.132;6.394;2023-06-14T00:45:37;16.10;86.60
52209;DHT22;38507;53.132;6.394;2023-06-14T00:48:04;16.10;87.10
52209;DHT22;38507;53.132;6.394;2023-06-14T00:50:32;16.00;87.20
52209;DHT22;38507;53.132;6.394;2023-06-14T00:52:59;16.00;87.10
52209;DHT22;38507;53.132;6.394;2023-06-14T00:55:26;16.00;87.30
52209;DHT22;38507;53.132;6.394;2023-06-14T00:57:54;16.00;88.60
52209;DHT22;38507;53.132;6.394;2023-06-14T01:00:20;16.00;87.90
52209;DHT22;38507;53.132;6.394;2023-06-14T01:02:46;16.00;88.30
52209;DHT22;38507;53.132;6.394;2023-06-14T01:05:12;15.90;88.40
52209;DHT22;38507;53.132;6.394;2023-06-14T01:15:53;15.90;90.30
52209;DHT22;38507;53.132;6.394;2023-06-14T01:18:19;15.80;89.90
52209;DHT22;38507;53.132;6.394;2023-06-14T01:20:47;15.80;89.80
52209;DHT22;38507;53.132;6.394;2023-06-14T01:23:19;15.80;90.10
52209;DHT22;38507;53.132;6.394;2023-06-14T01:25:46;15.80;90.50
52209;DHT22;38507;53.132;6.394;2023-06-14T01:28:13;15.70;90.20
52209;DHT22;38507;53.132;6.394;2023-06-14T01:30:41;15.70;90.40
52209;DHT22;38507;53.132;6.394;2023-06-14T01:33:15;15.70;90.40
52209;DHT22;38507;53.132;6.394;2023-06-14T01:35:45;15.60;90.70
52209;DHT22;38507;53.132;6.394;2023-06-14T01:38:15;15.60;90.70
52209;DHT22;38507;53.132;6.394;2023-06-14T01:40:43;15.60;90.70
52209;DHT22;38507;53.132;6.394;2023-06-14T01:43:11;15.60;91.20
52209;DHT22;38507;53.132;6.394;2023-06-14T01:45:39;15.60;91.10
52209;DHT22;38507;53.132;6.394;2023-06-14T01:48:05;15.50;91.20
52209;DHT22;38507;53.132;6.394;2023-06-14T01:50:31;15.50;91.20
52209;DHT22;38507;53.132;6.394;2023-06-14T01:52:57;15.50;91.50
52209;DHT22;38507;53.132;6.394;2023-06-14T01:55:23;15.40;91.40
52209;DHT22;38507;53.132;6.394;2023-06-14T01:57:53;15.40;91.40
52209;DHT22;38507;53.132;6.394;2023-06-14T02:00:20;15.40;91.60
52209;DHT22;38507;53.132;6.394;2023-06-14T02:02:46;15.40;91.70
52209;DHT22;38507;53.132;6.394;2023-06-14T02:05:13;15.40;91.80
52209;DHT22;38507;53.132;6.394;2023-06-14T02:07:38;15.30;91.80
52209;DHT22;38507;53.132;6.394;2023-06-14T02:10:05;15.30;92.10
52209;DHT22;38507;53.132;6.394;2023-06-14T02:12:31;15.30;92.20
52209;DHT22;38507;53.132;6.394;2023-06-14T02:14:56;15.20;92.50
52209;DHT22;38507;53.132;6.394;2023-06-14T02:17:23;15.20;92.20
52209;DHT22;38507;53.132;6.394;2023-06-14T02:19:50;15.20;92.50
52209;DHT22;38507;53.132;6.394;2023-06-14T02:22:16;15.20;92.70
52209;DHT22;38507;53.132;6.394;2023-06-14T02:24:42;15.20;92.60
52209;DHT22;38507;53.132;6.394;2023-06-14T02:27:08;15.10;92.60
52209;DHT22;38507;53.132;6.394;2023-06-14T02:29:38;15.10;92.80
52209;DHT22;38507;53.132;6.394;2023-06-14T02:32:05;15.10;93.20
52209;DHT22;38507;53.132;6.394;2023-06-14T02:34:33;15.00;93.30
52209;DHT22;38507;53.132;6.394;2023-06-14T02:36:59;15.00;93.10
52209;DHT22;38507;53.132;6.394;2023-06-14T02:39:25;15.00;93.30
52209;DHT22;38507;53.132;6.394;2023-06-14T02:41:51;15.00;93.70
52209;DHT22;38507;53.132;6.394;2023-06-14T02:44:19;15.00;93.50
52209;DHT22;38507;53.132;6.394;2023-06-14T02:46:45;15.00;93.70
52209;DHT22;38507;53.132;6.394;2023-06-14T02:49:13;14.90;93.70
52209;DHT22;38507;53.132;6.394;2023-06-14T02:51:39;14.90;93.70
52209;DHT22;38507;53.132;6.394;2023-06-14T02:54:05;14.90;93.90
52209;DHT22;38507;53.132;6.394;2023-06-14T02:56:31;14.90;94.00
52209;DHT22;38507;53.132;6.394;2023-06-14T02:58:57;14.80;94.60
52209;DHT22;38507;53.132;6.394;2023-06-14T03:01:22;14.80;94.40
52209;DHT22;38507;53.132;6.394;2023-06-14T03:03:48;14.90;94.30
52209;DHT22;38507;53.132;6.394;2023-06-14T03:06:14;14.80;94.40
52209;DHT22;38507;53.132;6.394;2023-06-14T03:08:41;14.80;94.40
52209;DHT22;38507;53.132;6.394;2023-06-14T03:11:07;14.80;94.80
52209;DHT22;38507;53.132;6.394;2023-06-14T03:13:37;14.70;94.90
52209;DHT22;38507;53.132;6.394;2023-06-14T03:16:04;14.70;95.00
52209;DHT22;38507;53.132;6.394;2023-06-14T03:18:30;14.70;95.30
52209;DHT22;38507;53.132;6.394;2023-06-14T03:21:01;14.70;95.50
52209;DHT22;38507;53.132;6.394;2023-06-14T03:23:28;14.70;95.30
52209;DHT22;38507;53.132;6.394;2023-06-14T03:25:53;14.70;95.10
52209;DHT22;38507;53.132;6.394;2023-06-14T03:28:19;14.70;95.20
52209;DHT22;38507;53.132;6.394;2023-06-14T03:30:45;14.70;95.30
52209;DHT22;38507;53.132;6.394;2023-06-14T03:33:11;14.70;95.50
52209;DHT22;38507;53.132;6.394;2023-06-14T03:35:36;14.60;95.80
52209;DHT22;38507;53.132;6.394;2023-06-14T03:38:02;14.60;95.60
52209;DHT22;38507;53.132;6.394;2023-06-14T03:40:29;14.70;95.70
52209;DHT22;38507;53.132;6.394;2023-06-14T03:42:55;14.60;96.10
52209;DHT22;38507;53.132;6.394;2023-06-14T03:45:21;14.60;96.10
52209;DHT22;38507;53.132;6.394;2023-06-14T03:47:47;14.60;96.40
52209;DHT22;38507;53.132;6.394;2023-06-14T03:50:13;14.60;96.30
52209;DHT22;38507;53.132;6.394;2023-06-14T03:52:38;14.60;96.50
52209;DHT22;38507;53.132;6.394;2023-06-14T03:55:05;14.60;96.10
52209;DHT22;38507;53.132;6.394;2023-06-14T03:57:30;14.60;96.20
52209;DHT22;38507;53.132;6.394;2023-06-14T03:59:56;14.70;96.40
52209;DHT22;38507;53.132;6.394;2023-06-14T04:02:22;14.60;96.40
52209;DHT22;38507;53.132;6.394;2023-06-14T04:04:48;14.70;96.70
52209;DHT22;38507;53.132;6.394;2023-06-14T04:07:15;14.70;96.70
52209;DHT22;38507;53.132;6.394;2023-06-14T04:09:41;14.70;97.00
52209;DHT22;38507;53.132;6.394;2023-06-14T04:12:07;14.60;97.00
52209;DHT22;38507;53.132;6.394;2023-06-14T04:14:37;14.60;97.30
52209;DHT22;38507;53.132;6.394;2023-06-14T04:17:03;14.60;97.10
52209;DHT22;38507;53.132;6.394;2023-06-14T04:19:28;14.70;97.10
52209;DHT22;38507;53.132;6.394;2023-06-14T04:21:54;14.70;97.40
52209;DHT22;38507;53.132;6.394;2023-06-14T04:24:20;14.70;97.30
52209;DHT22;38507;53.132;6.394;2023-06-14T04:26:46;14.70;97.70
52209;DHT22;38507;53.132;6.394;2023-06-14T04:29:14;14.70;97.60
52209;DHT22;38507;53.132;6.394;2023-06-14T04:31:45;14.80;97.80
52209;DHT22;38507;53.132;6.394;2023-06-14T04:34:11;14.80;97.90
52209;DHT22;38507;53.132;6.394;2023-06-14T04:36:42;14.80;97.70
52209;DHT22;38507;53.132;6.394;2023-06-14T04:39:20;14.90;97.60
52209;DHT22;38507;53.132;6.394;2023-06-14T04:41:46;14.90;97.80
52209;DHT22;38507;53.132;6.394;2023-06-14T04:44:13;15.00;97.70
52209;DHT22;38507;53.132;6.394;2023-06-14T04:46:39;15.00;97.80
52209;DHT22;38507;53.132;6.394;2023-06-14T04:49:17;15.10;97.70
52209;DHT22;38507;53.132;6.394;2023-06-14T04:51:44;15.10;97.80
52209;DHT22;38507;53.132;6.394;2023-06-14T04:54:11;15.20;97.90
52209;DHT22;38507;53.132;6.394;2023-06-14T04:56:41;15.20;97.90
52209;DHT22;38507;53.132;6.394;2023-06-14T04:59:07;15.30;97.90
52209;DHT22;38507;53.132;6.394;2023-06-14T05:01:34;15.30;97.90
52209;DHT22;38507;53.132;6.394;2023-06-14T05:04:00;15.40;97.80
52209;DHT22;38507;53.132;6.394;2023-06-14T05:06:26;15.40;98.00
52209;DHT22;38507;53.132;6.394;2023-06-14T05:08:53;15.50;98.30
52209;DHT22;38507;53.132;6.394;2023-06-14T05:11:19;15.50;98.00
52209;DHT22;38507;53.132;6.394;2023-06-14T05:13:45;15.60;97.80
52209;DHT22;38507;53.132;6.394;2023-06-14T05:16:13;15.60;97.90
52209;DHT22;38507;53.132;6.394;2023-06-14T05:18:41;15.80;98.00
52209;DHT22;38507;53.132;6.394;2023-06-14T05:21:07;15.80;97.80
52209;DHT22;38507;53.132;6.394;2023-06-14T05:23:32;15.90;97.70
52209;DHT22;38507;53.132;6.394;2023-06-14T05:25:58;16.00;97.70
52209;DHT22;38507;53.132;6.394;2023-06-14T05:28:24;16.00;97.60
52209;DHT22;38507;53.132;6.394;2023-06-14T05:30:51;16.20;97.80
52209;DHT22;38507;53.132;6.394;2023-06-14T05:33:17;16.20;97.60
52209;DHT22;38507;53.132;6.394;2023-06-14T05:35:43;16.30;97.50
52209;DHT22;38507;53.132;6.394;2023-06-14T05:38:08;16.40;97.40
52209;DHT22;38507;53.132;6.394;2023-06-14T05:40:34;16.50;97.30
52209;DHT22;38507;53.132;6.394;2023-06-14T05:42:59;16.60;97.30
52209;DHT22;38507;53.132;6.394;2023-06-14T05:45:25;16.70;97.20
52209;DHT22;38507;53.132;6.394;2023-06-14T05:47:51;16.80;97.10
52209;DHT22;38507;53.132;6.394;2023-06-14T05:50:17;16.80;97.00
52209;DHT22;38507;53.132;6.394;2023-06-14T05:52:43;16.90;97.10
52209;DHT22;38507;53.132;6.394;2023-06-14T05:55:09;17.00;96.80
52209;DHT22;38507;53.132;6.394;2023-06-14T05:57:37;17.10;96.70
52209;DHT22;38507;53.132;6.394;2023-06-14T06:00:03;17.20;96.40
52209;DHT22;38507;53.132;6.394;2023-06-14T06:02:36;17.40;96.40
52209;DHT22;38507;53.132;6.394;2023-06-14T06:05:01;17.40;96.40
52209;DHT22;38507;53.132;6.394;2023-06-14T06:07:27;17.60;96.20
52209;DHT22;38507;53.132;6.394;2023-06-14T06:09:53;17.70;96.20
52209;DHT22;38507;53.132;6.394;2023-06-14T06:12:19;17.70;95.80
52209;DHT22;38507;53.132;6.394;2023-06-14T06:14:44;17.80;95.70
52209;DHT22;38507;53.132;6.394;2023-06-14T06:17:10;17.90;95.70
52209;DHT22;38507;53.132;6.394;2023-06-14T06:19:36;18.10;95.60
52209;DHT22;38507;53.132;6.394;2023-06-14T06:22:02;18.10;95.40
52209;DHT22;38507;53.132;6.394;2023-06-14T06:24:30;18.20;95.30
52209;DHT22;38507;53.132;6.394;2023-06-14T06:26:56;18.40;95.20
52209;DHT22;38507;53.132;6.394;2023-06-14T06:29:21;18.60;95.00
52209;DHT22;38507;53.132;6.394;2023-06-14T06:31:47;18.70;94.80
52209;DHT22;38507;53.132;6.394;2023-06-14T06:34:12;18.90;94.50
52209;DHT22;38507;53.132;6.394;2023-06-14T06:36:38;19.10;94.40
52209;DHT22;38507;53.132;6.394;2023-06-14T06:39:04;19.40;94.20
52209;DHT22;38507;53.132;6.394;2023-06-14T06:41:38;19.60;93.80
52209;DHT22;38507;53.132;6.394;2023-06-14T06:44:07;19.80;93.60
52209;DHT22;38507;53.132;6.394;2023-06-14T06:46:33;20.00;93.20
52209;DHT22;38507;53.132;6.394;2023-06-14T06:49:00;20.30;93.00
52209;DHT22;38507;53.132;6.394;2023-06-14T06:51:26;20.50;92.50
52209;DHT22;38507;53.132;6.394;2023-06-14T06:53:55;20.80;92.40
52209;DHT22;38507;53.132;6.394;2023-06-14T06:56:21;21.00;91.80
52209;DHT22;38507;53.132;6.394;2023-06-14T06:58:49;21.20;91.80
52209;DHT22;38507;53.132;6.394;2023-06-14T07:01:15;21.50;91.70
52209;DHT22;38507;53.132;6.394;2023-06-14T07:03:41;21.80;91.30
52209;DHT22;38507;53.132;6.394;2023-06-14T07:06:07;22.00;90.90
52209;DHT22;38507;53.132;6.394;2023-06-14T07:08:33;22.20;90.90
52209;DHT22;38507;53.132;6.394;2023-06-14T07:10:58;22.40;90.50
52209;DHT22;38507;53.132;6.394;2023-06-14T07:13:24;22.50;90.00
52209;DHT22;38507;53.132;6.394;2023-06-14T07:15:50;22.70;89.40
52209;DHT22;38507;53.132;6.394;2023-06-14T07:18:18;22.90;88.20
52209;DHT22;38507;53.132;6.394;2023-06-14T07:20:44;23.10;88.30
52209;DHT22;38507;53.132;6.394;2023-06-14T07:23:10;23.30;88.40
52209;DHT22;38507;53.132;6.394;2023-06-14T07:25:36;23.40;86.90
52209;DHT22;38507;53.132;6.394;2023-06-14T07:28:01;23.50;86.10
52209;DHT22;38507;53.132;6.394;2023-06-14T07:30:27;23.60;86.50
52209;DHT22;38507;53.132;6.394;2023-06-14T07:32:55;23.60;85.30
52209;DHT22;38507;53.132;6.394;2023-06-14T07:35:21;23.90;85.90
52209;DHT22;38507;53.132;6.394;2023-06-14T07:37:47;24.10;85.10
52209;DHT22;38507;53.132;6.394;2023-06-14T07:40:13;24.10;84.50
52209;DHT22;38507;53.132;6.394;2023-06-14T07:42:39;24.10;84.00
52209;DHT22;38507;53.132;6.394;2023-06-14T07:45:05;24.30;84.50
52209;DHT22;38507;53.132;6.394;2023-06-14T07:47:31;24.60;84.20
52209;DHT22;38507;53.132;6.394;2023-06-14T07:49:57;24.50;83.10
52209;DHT22;38507;53.132;6.394;2023-06-14T07:52:23;24.70;83.80
52209;DHT22;38507;53.132;6.394;2023-06-14T07:54:48;24.70;82.30
52209;DHT22;38507;53.132;6.394;2023-06-14T07:57:14;24.50;82.10
52209;DHT22;38507;53.132;6.394;2023-06-14T07:59:40;24.60;82.70
52209;DHT22;38507;53.132;6.394;2023-06-14T08:02:06;24.80;82.40
52209;DHT22;38507;53.132;6.394;2023-06-14T08:04:32;24.70;80.80
52209;DHT22;38507;53.132;6.394;2023-06-14T08:06:59;24.90;81.70
52209;DHT22;38507;53.132;6.394;2023-06-14T08:09:24;25.10;81.70
52209;DHT22;38507;53.132;6.394;2023-06-14T08:11:50;25.00;81.60
52209;DHT22;38507;53.132;6.394;2023-06-14T08:14:16;24.80;80.10
52209;DHT22;38507;53.132;6.394;2023-06-14T08:16:42;24.70;80.10
52209;DHT22;38507;53.132;6.394;2023-06-14T08:19:08;24.50;79.80
52209;DHT22;38507;53.132;6.394;2023-06-14T08:21:33;24.80;80.10
52209;DHT22;38507;53.132;6.394;2023-06-14T08:24:02;24.70;80.10
52209;DHT22;38507;53.132;6.394;2023-06-14T08:26:29;24.80;79.90
52209;DHT22;38507;53.132;6.394;2023-06-14T08:28:55;24.90;80.00
52209;DHT22;38507;53.132;6.394;2023-06-14T08:31:21;25.00;79.50
52209;DHT22;38507;53.132;6.394;2023-06-14T08:33:47;24.90;80.10
52209;DHT22;38507;53.132;6.394;2023-06-14T08:36:12;25.30;80.10
52209;DHT22;38507;53.132;6.394;2023-06-14T08:38:39;25.50;79.40
52209;DHT22;38507;53.132;6.394;2023-06-14T08:41:05;25.80;80.10
52209;DHT22;38507;53.132;6.394;2023-06-14T08:43:34;25.60;78.80
52209;DHT22;38507;53.132;6.394;2023-06-14T08:46:04;25.70;79.20
52209;DHT22;38507;53.132;6.394;2023-06-14T08:48:32;25.80;78.70
52209;DHT22;38507;53.132;6.394;2023-06-14T08:51:02;25.80;77.20
52209;DHT22;38507;53.132;6.394;2023-06-14T08:53:31;25.80;77.20
52209;DHT22;38507;53.132;6.394;2023-06-14T08:55:59;25.90;77.50
52209;DHT22;38507;53.132;6.394;2023-06-14T08:58:28;25.80;77.50
52209;DHT22;38507;53.132;6.394;2023-06-14T09:00:57;25.90;77.70
52209;DHT22;38507;53.132;6.394;2023-06-14T09:03:23;25.90;77.70
52209;DHT22;38507;53.132;6.394;2023-06-14T09:05:54;25.90;77.20
52209;DHT22;38507;53.132;6.394;2023-06-14T09:08:20;26.00;76.60
52209;DHT22;38507;53.132;6.394;2023-06-14T09:10:47;26.20;76.50
52209;DHT22;38507;53.132;6.394;2023-06-14T09:13:13;26.00;76.40
52209;DHT22;38507;53.132;6.394;2023-06-14T09:15:38;26.30;76.60
52209;DHT22;38507;53.132;6.394;2023-06-14T09:18:05;26.40;76.50
52209;DHT22;38507;53.132;6.394;2023-06-14T09:20:32;26.50;76.00
52209;DHT22;38507;53.132;6.394;2023-06-14T09:22:58;26.50;76.20
52209;DHT22;38507;53.132;6.394;2023-06-14T09:25:24;26.60;76.00
52209;DHT22;38507;53.132;6.394;2023-06-14T09:27:51;26.60;76.40
52209;DHT22;38507;53.132;6.394;2023-06-14T09:30:20;26.50;76.00
52209;DHT22;38507;53.132;6.394;2023-06-14T09:32:46;26.60;76.10
52209;DHT22;38507;53.132;6.394;2023-06-14T09:35:11;26.70;75.60
52209;DHT22;38507;53.132;6.394;2023-06-14T09:37:37;26.70;75.60
52209;DHT22;38507;53.132;6.394;2023-06-14T09:40:04;26.60;75.60
52209;DHT22;38507;53.132;6.394;2023-06-14T09:42:31;26.80;75.60
52209;DHT22;38507;53.132;6.394;2023-06-14T09:44:57;26.80;75.40
52209;DHT22;38507;53.132;6.394;2023-06-14T09:47:26;26.70;74.80
52209;DHT22;38507;53.132;6.394;2023-06-14T09:49:51;26.70;74.70
52209;DHT22;38507;53.132;6.394;2023-06-14T09:52:20;26.70;75.10
52209;DHT22;38507;53.132;6.394;2023-06-14T09:54:47;26.60;74.70
52209;DHT22;38507;53.132;6.394;2023-06-14T09:57:22;26.60;73.60
52209;DHT22;38507;53.132;6.394;2023-06-14T09:59:51;26.60;74.30
52209;DHT22;38507;53.132;6.394;2023-06-14T10:02:29;26.70;74.20
52209;DHT22;38507;53.132;6.394;2023-06-14T10:05:07;26.80;74.50
52209;DHT22;38507;53.132;6.394;2023-06-14T10:07:48;26.80;73.80
52209;DHT22;38507;53.132;6.394;2023-06-14T10:10:15;26.90;74.50
52209;DHT22;38507;53.132;6.394;2023-06-14T10:12:41;27.00;74.60
52209;DHT22;38507;53.132;6.394;2023-06-14T10:15:10;27.20;74.70
52209;DHT22;38507;53.132;6.394;2023-06-14T10:17:48;27.10;74.50
52209;DHT22;38507;53.132;6.394;2023-06-14T10:20:33;26.80;74.50
52209;DHT22;38507;53.132;6.394;2023-06-14T10:23:19;26.90;74.20
52209;DHT22;38507;53.132;6.394;2023-06-14T10:25:45;27.00;75.20
52209;DHT22;38507;53.132;6.394;2023-06-14T10:28:20;26.80;74.20
52209;DHT22;38507;53.132;6.394;2023-06-14T10:33:32;26.60;73.30
52209;DHT22;38507;53.132;6.394;2023-06-14T10:41:27;27.00;73.90
52209;DHT22;38507;53.132;6.394;2023-06-14T10:46:37;27.20;74.10
52209;DHT22;38507;53.132;6.394;2023-06-14T10:49:03;27.30;74.60
52209;DHT22;38507;53.132;6.394;2023-06-14T10:51:29;27.50;74.40
52209;DHT22;38507;53.132;6.394;2023-06-14T10:53:58;27.60;73.60
52209;DHT22;38507;53.132;6.394;2023-06-14T10:56:27;27.60;73.80
52209;DHT22;38507;53.132;6.394;2023-06-14T10:58:54;27.50;71.90
52209;DHT22;38507;53.132;6.394;2023-06-14T11:01:41;27.40;72.20
52209;DHT22;38507;53.132;6.394;2023-06-14T11:04:11;27.30;72.10
52209;DHT22;38507;53.132;6.394;2023-06-14T11:12:47;27.80;74.30
52209;DHT22;38507;53.132;6.394;2023-06-14T11:15:13;27.70;72.50
52209;DHT22;38507;53.132;6.394;2023-06-14T11:17:39;27.70;72.60
52209;DHT22;38507;53.132;6.394;2023-06-14T11:20:09;27.70;72.40
52209;DHT22;38507;53.132;6.394;2023-06-14T11:22:41;27.80;71.10
52209;DHT22;38507;53.132;6.394;2023-06-14T11:25:11;27.90;72.00
52209;DHT22;38507;53.132;6.394;2023-06-14T11:27:37;28.00;72.90
52209;DHT22;38507;53.132;6.394;2023-06-14T11:30:03;28.20;73.00
52209;DHT22;38507;53.132;6.394;2023-06-14T11:32:31;28.30;72.40
52209;DHT22;38507;53.132;6.394;2023-06-14T11:34:57;28.20;72.70
52209;DHT22;38507;53.132;6.394;2023-06-14T11:37:25;28.30;72.20
52209;DHT22;38507;53.132;6.394;2023-06-14T11:39:51;28.30;72.70
52209;DHT22;38507;53.132;6.394;2023-06-14T11:42:17;28.40;72.40
52209;DHT22;38507;53.132;6.394;2023-06-14T11:44:46;28.50;72.20
52209;DHT22;38507;53.132;6.394;2023-06-14T11:47:12;28.40;72.00
52209;DHT22;38507;53.132;6.394;2023-06-14T11:49:38;28.50;71.70
52209;DHT22;38507;53.132;6.394;2023-06-14T11:52:04;28.30;71.00
52209;DHT22;38507;53.132;6.394;2023-06-14T11:54:31;28.20;70.80
52209;DHT22;38507;53.132;6.394;2023-06-14T11:56:58;28.20;71.10
52209;DHT22;38507;53.132;6.394;2023-06-14T11:59:24;28.30;71.30
52209;DHT22;38507;53.132;6.394;2023-06-14T12:01:50;28.30;70.80
52209;DHT22;38507;53.132;6.394;2023-06-14T12:04:28;28.30;70.20
52209;DHT22;38507;53.132;6.394;2023-06-14T12:06:54;28.10;69.90
52209;DHT22;38507;53.132;6.394;2023-06-14T12:09:21;28.00;70.10
52209;DHT22;38507;53.132;6.394;2023-06-14T12:11:59;28.20;70.40
52209;DHT22;38507;53.132;6.394;2023-06-14T12:14:32;28.20;70.10
52209;DHT22;38507;53.132;6.394;2023-06-14T12:17:05;28.20;70.00
52209;DHT22;38507;53.132;6.394;2023-06-14T12:19:41;28.30;70.00
52209;DHT22;38507;53.132;6.394;2023-06-14T12:22:10;28.30;70.20
52209;DHT22;38507;53.132;6.394;2023-06-14T12:24:35;28.30;69.10
52209;DHT22;38507;53.132;6.394;2023-06-14T12:27:01;28.20;69.70
52209;DHT22;38507;53.132;6.394;2023-06-14T12:29:31;28.30;69.70
52209;DHT22;38507;53.132;6.394;2023-06-14T12:31:56;28.40;70.10
52209;DHT22;38507;53.132;6.394;2023-06-14T12:34:28;28.40;70.20
52209;DHT22;38507;53.132;6.394;2023-06-14T12:36:54;28.10;69.30
52209;DHT22;38507;53.132;6.394;2023-06-14T12:39:21;28.00;69.30
52209;DHT22;38507;53.132;6.394;2023-06-14T12:41:47;28.10;69.60
52209;DHT22;38507;53.132;6.394;2023-06-14T12:44:14;28.20;69.90
52209;DHT22;38507;53.132;6.394;2023-06-14T12:46:41;28.30;69.60
52209;DHT22;38507;53.132;6.394;2023-06-14T12:49:09;27.90;69.20
52209;DHT22;38507;53.132;6.394;2023-06-14T12:51:36;28.10;70.00
52209;DHT22;38507;53.132;6.394;2023-06-14T12:54:02;28.10;70.10
52209;DHT22;38507;53.132;6.394;2023-06-14T12:56:27;28.20;69.60
52209;DHT22;38507;53.132;6.394;2023-06-14T12:58:53;28.30;69.60
52209;DHT22;38507;53.132;6.394;2023-06-14T13:01:19;28.40;69.80
52209;DHT22;38507;53.132;6.394;2023-06-14T13:03:48;28.40;69.50
52209;DHT22;38507;53.132;6.394;2023-06-14T13:06:16;28.60;69.90
52209;DHT22;38507;53.132;6.394;2023-06-14T13:08:41;28.40;69.30
52209;DHT22;38507;53.132;6.394;2023-06-14T13:11:07;28.40;69.40
52209;DHT22;38507;53.132;6.394;2023-06-14T13:13:33;28.70;69.70
52209;DHT22;38507;53.132;6.394;2023-06-14T13:15:58;28.60;69.60
52209;DHT22;38507;53.132;6.394;2023-06-14T13:18:24;28.70;69.50
52209;DHT22;38507;53.132;6.394;2023-06-14T13:20:50;28.70;69.40
52209;DHT22;38507;53.132;6.394;2023-06-14T13:23:16;28.90;69.80
52209;DHT22;38507;53.132;6.394;2023-06-14T13:25:43;29.10;70.00
52209;DHT22;38507;53.132;6.394;2023-06-14T13:28:08;29.10;70.00
52209;DHT22;38507;53.132;6.394;2023-06-14T13:30:35;29.30;69.90
52209;DHT22;38507;53.132;6.394;2023-06-14T13:33:01;28.80;68.20
52209;DHT22;38507;53.132;6.394;2023-06-14T13:35:27;28.60;68.70
52209;DHT22;38507;53.132;6.394;2023-06-14T13:37:53;28.40;67.70
52209;DHT22;38507;53.132;6.394;2023-06-14T13:40:18;28.30;68.40
52209;DHT22;38507;53.132;6.394;2023-06-14T13:42:46;28.60;68.70
52209;DHT22;38507;53.132;6.394;2023-06-14T13:45:13;28.70;68.90
52209;DHT22;38507;53.132;6.394;2023-06-14T13:47:39;28.70;68.70
52209;DHT22;38507;53.132;6.394;2023-06-14T13:50:05;28.60;68.50
52209;DHT22;38507;53.132;6.394;2023-06-14T13:52:31;28.80;68.70
52209;DHT22;38507;53.132;6.394;2023-06-14T13:54:57;28.60;68.40
52209;DHT22;38507;53.132;6.394;2023-06-14T13:57:23;28.50;68.70
52209;DHT22;38507;53.132;6.394;2023-06-14T13:59:48;28.50;68.50
52209;DHT22;38507;53.132;6.394;2023-06-14T14:02:15;28.70;69.00
52209;DHT22;38507;53.132;6.394;2023-06-14T14:04:41;28.80;68.90
52209;DHT22;38507;53.132;6.394;2023-06-14T14:07:07;28.80;68.70
52209;DHT22;38507;53.132;6.394;2023-06-14T14:09:33;29.00;68.60
52209;DHT22;38507;53.132;6.394;2023-06-14T14:12:04;29.10;68.50
52209;DHT22;38507;53.132;6.394;2023-06-14T14:14:31;29.10;68.40
52209;DHT22;38507;53.132;6.394;2023-06-14T14:16:57;29.40;68.10
52209;DHT22;38507;53.132;6.394;2023-06-14T14:19:23;29.40;68.30
52209;DHT22;38507;53.132;6.394;2023-06-14T14:21:49;29.50;67.90
52209;DHT22;38507;53.132;6.394;2023-06-14T14:24:15;29.70;68.00
52209;DHT22;38507;53.132;6.394;2023-06-14T14:26:41;29.10;67.30
52209;DHT22;38507;53.132;6.394;2023-06-14T14:29:08;29.30;67.40
52209;DHT22;38507;53.132;6.394;2023-06-14T14:31:34;29.10;67.40
52209;DHT22;38507;53.132;6.394;2023-06-14T14:34:00;29.10;67.60
52209;DHT22;38507;53.132;6.394;2023-06-14T14:36:25;29.30;67.70
52209;DHT22;38507;53.132;6.394;2023-06-14T14:38:51;29.40;67.30
52209;DHT22;38507;53.132;6.394;2023-06-14T14:41:17;29.70;68.10
52209;DHT22;38507;53.132;6.394;2023-06-14T14:43:43;29.80;67.50
52209;DHT22;38507;53.132;6.394;2023-06-14T14:46:08;30.00;67.10
52209;DHT22;38507;53.132;6.394;2023-06-14T14:48:34;30.00;67.20
52209;DHT22;38507;53.132;6.394;2023-06-14T14:51:00;30.20;68.00
52209;DHT22;38507;53.132;6.394;2023-06-14T14:53:26;30.10;66.60
52209;DHT22;38507;53.132;6.394;2023-06-14T14:55:51;30.00;66.40
52209;DHT22;38507;53.132;6.394;2023-06-14T14:58:17;30.10;66.80
52209;DHT22;38507;53.132;6.394;2023-06-14T15:00:44;30.20;66.40
52209;DHT22;38507;53.132;6.394;2023-06-14T15:03:10;30.40;66.50
52209;DHT22;38507;53.132;6.394;2023-06-14T15:05:36;30.50;66.90
52209;DHT22;38507;53.132;6.394;2023-06-14T15:08:03;30.50;66.80
52209;DHT22;38507;53.132;6.394;2023-06-14T15:10:29;30.30;66.50
52209;DHT22;38507;53.132;6.394;2023-06-14T15:12:55;29.90;66.30
52209;DHT22;38507;53.132;6.394;2023-06-14T15:15:22;29.90;66.20
52209;DHT22;38507;53.132;6.394;2023-06-14T15:17:48;30.20;65.70
52209;DHT22;38507;53.132;6.394;2023-06-14T15:20:13;30.20;65.90
52209;DHT22;38507;53.132;6.394;2023-06-14T15:22:40;30.20;65.40
52209;DHT22;38507;53.132;6.394;2023-06-14T15:25:06;30.30;65.40
52209;DHT22;38507;53.132;6.394;2023-06-14T15:27:32;30.20;66.00
52209;DHT22;38507;53.132;6.394;2023-06-14T15:29:57;30.30;66.20
52209;DHT22;38507;53.132;6.394;2023-06-14T15:32:23;30.10;66.20
52209;DHT22;38507;53.132;6.394;2023-06-14T15:34:49;29.80;66.20
52209;DHT22;38507;53.132;6.394;2023-06-14T15:37:14;30.00;66.40
52209;DHT22;38507;53.132;6.394;2023-06-14T15:39:40;30.20;66.60
52209;DHT22;38507;53.132;6.394;2023-06-14T15:42:06;30.00;66.40
52209;DHT22;38507;53.132;6.394;2023-06-14T15:44:33;30.10;66.10
52209;DHT22;38507;53.132;6.394;2023-06-14T15:46:59;30.20;66.40
52209;DHT22;38507;53.132;6.394;2023-06-14T15:49:24;29.90;66.00
52209;DHT22;38507;53.132;6.394;2023-06-14T15:51:51;29.90;66.00
52209;DHT22;38507;53.132;6.394;2023-06-14T15:54:16;29.90;65.80